Time;durP1;ratioP1;P1;durP2;ratioP2;P2;SDS_P1;SDS_P2;PMS_P1;PMS_P2;Temp;Humidity;BMP_temperature;BMP_pressure;BME280_temperature;BME280_humidity;BME280_pressure;Samples;Min_cycle;Max_cycle;Signal;HPM_P1;HPM_P2
2023/12/18 00:01:15;;;;;;;18.00;5.43;;;25.70;99.90;;;;;;4973402;28;20191;-70
2023/12/18 00:03:42;;;;;;;20.87;4.47;;;25.90;99.90;;;;;;4991357;28;20183;-70
2023/12/18 00:06:10;;;;;;;18.90;5.37;;;26.10;99.90;;;;;;4991342;28;20277;-70
2023/12/18 00:08:38;;;;;;;18.47;5.33;;;26.10;99.90;;;;;;4994095;28;20175;-73
2023/12/18 00:11:05;;;;;;;14.27;3.87;;;26.30;99.90;;;;;;4994497;28;20228;-71
2023/12/18 00:13:33;;;;;;;17.07;4.23;;;26.60;99.90;;;;;;4994453;28;20186;-69
2023/12/18 00:16:01;;;;;;;24.27;5.70;;;26.80;99.90;;;;;;4994403;28;20182;-69
2023/12/18 00:18:29;;;;;;;15.47;4.83;;;26.90;99.90;;;;;;4977126;28;20214;-70
2023/12/18 00:20:57;;;;;;;22.53;5.50;;;27.00;99.90;;;;;;4993779;28;20276;-70
2023/12/18 00:23:24;;;;;;;15.20;4.77;;;27.00;99.90;;;;;;4994195;28;20288;-70
2023/12/18 00:25:52;;;;;;;20.70;5.60;;;26.90;99.90;;;;;;4994273;28;20277;-70
2023/12/18 00:28:20;;;;;;;20.67;6.60;;;26.80;99.90;;;;;;4994706;28;20179;-68
2023/12/18 00:30:48;;;;;;;16.63;5.00;;;26.80;99.90;;;;;;4994475;28;20182;-71
2023/12/18 00:33:15;;;;;;;19.67;5.60;;;26.60;99.90;;;;;;4994068;28;20194;-71
2023/12/18 00:35:43;;;;;;;23.53;5.50;;;26.50;99.90;;;;;;4994725;28;20293;-70
2023/12/18 00:38:11;;;;;;;17.77;4.83;;;26.40;99.90;;;;;;4994399;28;20194;-72
2023/12/18 00:40:38;;;;;;;21.67;6.33;;;26.40;99.90;;;;;;4994466;28;20245;-70
2023/12/18 00:43:06;;;;;;;16.00;5.20;;;26.40;99.90;;;;;;4993435;28;20179;-72
2023/12/18 00:45:34;;;;;;;18.10;5.10;;;26.60;99.90;;;;;;4994094;28;20186;-71
2023/12/18 00:48:02;;;;;;;16.47;6.03;;;26.80;99.90;;;;;;4993456;28;20774;-70
2023/12/18 00:50:29;;;;;;;24.77;6.57;;;27.10;99.90;;;;;;4994100;28;20197;-69
2023/12/18 00:52:57;;;;;;;16.57;5.80;;;27.40;99.90;;;;;;4994254;28;20193;-71
2023/12/18 00:55:25;;;;;;;19.50;6.07;;;27.80;99.90;;;;;;4993835;28;20217;-71
2023/12/18 00:57:52;;;;;;;20.60;5.53;;;28.20;99.90;;;;;;4993539;28;20237;-69
2023/12/18 01:00:20;;;;;;;22.13;5.90;;;28.30;99.90;;;;;;4996203;28;20754;-70
2023/12/18 01:02:48;;;;;;;15.70;5.40;;;28.40;99.90;;;;;;4995583;28;20245;-72
2023/12/18 01:05:15;;;;;;;16.57;5.60;;;28.00;99.90;;;;;;4995506;28;20210;-71
2023/12/18 01:07:43;;;;;;;19.27;6.37;;;27.70;99.90;;;;;;4995761;28;20189;-71
2023/12/18 01:10:11;;;;;;;21.20;7.67;;;28.10;99.90;;;;;;4993971;28;20197;-72
2023/12/18 01:12:39;;;;;;;24.07;6.57;;;29.10;99.90;;;;;;4994241;28;20190;-70
2023/12/18 01:15:07;;;;;;;15.83;7.23;;;29.30;99.90;;;;;;4994255;28;20193;-71
2023/12/18 01:17:35;;;;;;;23.27;8.30;;;29.70;99.90;;;;;;4993288;28;20181;-71
2023/12/18 01:20:03;;;;;;;21.90;8.10;;;29.70;99.90;;;;;;4993374;28;20273;-71
2023/12/18 01:22:31;;;;;;;17.73;8.53;;;29.80;99.90;;;;;;4993776;28;20197;-71
2023/12/18 01:24:58;;;;;;;21.10;7.57;;;30.30;99.90;;;;;;4993078;28;20179;-69
2023/12/18 01:27:26;;;;;;;22.83;8.87;;;30.40;99.90;;;;;;4993485;28;20634;-70
2023/12/18 01:33:16;;;;;;;24.50;7.90;;;31.40;99.90;;;;;;4992443;28;20232;-69
2023/12/18 01:35:43;;;;;;;24.50;8.48;;;30.80;99.90;;;;;;4993439;28;20194;-70
2023/12/18 01:38:11;;;;;;;18.97;7.77;;;31.10;99.90;;;;;;4992973;28;20174;-70
2023/12/18 01:40:39;;;;;;;21.20;7.95;;;31.70;99.90;;;;;;4993106;28;20226;-68
2023/12/18 01:43:25;;;;;;;17.13;6.95;;;31.80;99.90;;;;;;4992165;28;20621;-71
2023/12/18 01:45:58;;;;;;;24.17;7.20;;;32.20;99.90;;;;;;4992570;28;20264;-70
2023/12/18 01:48:26;;;;;;;22.27;8.23;;;32.30;99.90;;;;;;4975402;28;20183;-70
2023/12/18 01:50:56;;;;;;;21.20;7.83;;;31.80;99.90;;;;;;4992942;28;20186;-71
2023/12/18 01:53:45;;;;;;;21.37;8.17;;;31.50;99.90;;;;;;4992468;28;20179;-68
2023/12/18 01:56:15;;;;;;;23.23;8.43;;;31.40;99.90;;;;;;4975662;28;20183;-71
2023/12/18 01:58:47;;;;;;;20.00;8.65;;;31.30;99.90;;;;;;4992835;28;20226;-70
2023/12/18 02:01:15;;;;;;;21.93;8.93;;;31.00;99.90;;;;;;4974712;28;20213;-71
2023/12/18 02:03:45;;;;;;;20.57;9.23;;;29.90;99.90;;;;;;4992800;28;20253;-70
2023/12/18 02:06:15;;;;;;;17.47;8.93;;;29.70;99.90;;;;;;4993047;28;20270;-71
2023/12/18 02:08:44;;;;;;;21.43;7.90;;;30.00;99.90;;;;;;4992565;28;20185;-71
2023/12/18 02:14:33;;;;;;;24.50;8.85;;;29.90;99.90;;;;;;4991892;28;20186;-68
2023/12/18 02:17:01;;;;;;;19.73;9.00;;;31.00;99.90;;;;;;4992878;28;20229;-70
2023/12/18 02:19:30;;;;;;;14.57;9.23;;;31.80;99.90;;;;;;4993785;28;20240;-69
2023/12/18 02:21:58;;;;;;;27.60;9.27;;;32.30;99.90;;;;;;4975109;28;20182;-70
2023/12/18 02:24:26;;;;;;;24.30;9.20;;;32.00;99.90;;;;;;4992759;28;20178;-72
2023/12/18 02:26:56;;;;;;;21.48;8.90;;;31.90;99.90;;;;;;4992474;28;20174;-70
2023/12/18 02:29:23;;;;;;;19.63;8.07;;;31.70;99.90;;;;;;4991282;28;20179;-70
2023/12/18 02:31:51;;;;;;;19.45;8.98;;;31.90;99.90;;;;;;4992029;28;20197;-69
2023/12/18 02:34:19;;;;;;;25.60;8.80;;;32.50;99.90;;;;;;4992363;28;20229;-70
2023/12/18 02:36:49;;;;;;;17.30;8.20;;;32.90;99.90;;;;;;4992124;28;20546;-69
2023/12/18 02:39:16;;;;;;;17.38;7.88;;;32.70;99.90;;;;;;4991744;28;20261;-70
2023/12/18 02:41:44;;;;;;;17.77;8.63;;;33.10;99.90;;;;;;4992104;28;20317;-69
2023/12/18 02:44:12;;;;;;;17.98;8.40;;;32.50;99.90;;;;;;4995705;28;20463;-71
2023/12/18 02:46:39;;;;;;;18.25;8.68;;;33.10;99.90;;;;;;4993254;28;20256;-70
2023/12/18 02:49:07;;;;;;;20.17;10.10;;;33.50;99.90;;;;;;4992188;28;20189;-69
2023/12/18 02:51:35;;;;;;;22.55;11.02;;;33.30;99.90;;;;;;4974473;28;20189;-68
2023/12/18 02:54:03;;;;;;;18.02;10.60;;;32.80;99.90;;;;;;4974849;28;20570;-71
2023/12/18 02:56:34;;;;;;;22.13;10.80;;;33.10;99.90;;;;;;4991932;28;20532;-70
2023/12/18 02:59:01;;;;;;;17.10;10.70;;;32.70;99.90;;;;;;4991211;28;20230;-70
2023/12/18 03:01:29;;;;;;;16.05;10.43;;;33.00;99.90;;;;;;4991141;28;20186;-69
2023/12/18 03:03:57;;;;;;;19.23;11.48;;;33.20;99.90;;;;;;4992064;28;20178;-68
2023/12/18 03:06:24;;;;;;;20.38;11.07;;;32.10;99.90;;;;;;4991581;28;20184;-69
2023/12/18 03:08:52;;;;;;;19.65;10.93;;;32.60;99.90;;;;;;4992090;28;20191;-69
2023/12/18 03:11:20;;;;;;;22.75;11.40;;;33.00;99.90;;;;;;4991718;28;20190;-68
2023/12/18 03:13:47;;;;;;;17.05;10.32;;;33.60;99.90;;;;;;4991362;28;20258;-68
2023/12/18 03:16:16;;;;;;;20.58;10.57;;;34.10;99.90;;;;;;4991973;28;20198;-68
2023/12/18 03:18:43;;;;;;;25.35;12.02;;;34.10;99.90;;;;;;4991931;28;20171;-69
2023/12/18 03:21:11;;;;;;;18.15;11.30;;;34.10;99.90;;;;;;4991375;28;20242;-69
2023/12/18 03:23:39;;;;;;;20.13;11.75;;;33.90;99.90;;;;;;4992008;28;20546;-68
2023/12/18 03:26:06;;;;;;;18.42;10.90;;;33.90;99.90;;;;;;4974563;28;20206;-69
2023/12/18 03:28:34;;;;;;;18.98;10.32;;;34.10;99.90;;;;;;4991516;28;20306;-69
2023/12/18 03:31:02;;;;;;;22.85;11.27;;;34.30;99.90;;;;;;4991619;28;20557;-69
2023/12/18 03:33:29;;;;;;;19.27;11.48;;;33.90;99.90;;;;;;4970634;28;20673;-70
2023/12/18 03:35:57;;;;;;;19.42;11.05;;;33.70;99.90;;;;;;4991582;28;20182;-70
2023/12/18 03:38:25;;;;;;;18.38;11.00;;;34.00;99.90;;;;;;4991609;28;20179;-69
2023/12/18 03:40:53;;;;;;;19.02;10.35;;;34.20;99.90;;;;;;4991554;28;20213;-70
2023/12/18 03:43:20;;;;;;;17.90;10.75;;;34.30;99.90;;;;;;4995275;28;20679;-71
2023/12/18 03:45:48;;;;;;;23.15;11.23;;;34.00;99.90;;;;;;4995644;28;20265;-69
2023/12/18 03:48:16;;;;;;;21.85;10.70;;;34.20;99.90;;;;;;4994904;28;20354;-70
2023/12/18 03:50:44;;;;;;;20.17;11.13;;;34.40;99.90;;;;;;4995268;28;20656;-70
2023/12/18 03:53:12;;;;;;;21.05;10.15;;;33.90;99.90;;;;;;4995432;28;20182;-70
2023/12/18 03:55:40;;;;;;;18.50;8.40;;;33.90;99.90;;;;;;4977377;28;20244;-71
2023/12/18 03:58:08;;;;;;;18.70;8.50;;;33.90;99.90;;;;;;4995325;28;20219;-69
2023/12/18 04:00:35;;;;;;;18.42;8.18;;;34.20;99.90;;;;;;4995126;28;20221;-69
2023/12/18 04:03:06;;;;;;;15.70;8.07;;;34.60;99.90;;;;;;4994051;28;20191;-72
2023/12/18 04:05:34;;;;;;;19.73;9.10;;;34.50;99.90;;;;;;4995256;28;20187;-71
2023/12/18 04:08:05;;;;;;;17.40;8.63;;;34.40;99.90;;;;;;4995181;28;20186;-70
2023/12/18 04:10:33;;;;;;;17.98;8.82;;;34.40;99.90;;;;;;4976788;28;20191;-70
2023/12/18 04:13:00;;;;;;;18.85;9.40;;;34.40;99.90;;;;;;4995023;28;20233;-69
2023/12/18 04:15:28;;;;;;;16.73;8.98;;;34.60;99.90;;;;;;4994869;28;20198;-70
2023/12/18 04:17:56;;;;;;;13.90;7.28;;;34.70;99.90;;;;;;4977072;28;20186;-70
2023/12/18 04:20:24;;;;;;;19.65;7.95;;;34.40;99.90;;;;;;4994291;28;20593;-69
2023/12/18 04:22:52;;;;;;;16.17;7.50;;;34.50;99.90;;;;;;4994800;28;20179;-70
2023/12/18 04:25:19;;;;;;;18.58;7.30;;;34.70;99.90;;;;;;4977281;28;20261;-70
2023/12/18 04:27:47;;;;;;;12.93;6.60;;;34.60;99.90;;;;;;4995599;28;20190;-72
2023/12/18 04:30:15;;;;;;;17.58;6.45;;;34.60;99.90;;;;;;4977524;28;20190;-69
2023/12/18 04:32:42;;;;;;;20.00;6.47;;;34.40;99.90;;;;;;4994509;28;20610;-68
2023/12/18 04:35:10;;;;;;;15.15;6.03;;;34.60;99.90;;;;;;4995200;28;20660;-69
2023/12/18 04:37:38;;;;;;;15.18;6.53;;;34.20;99.90;;;;;;4995357;28;20179;-71
2023/12/18 04:40:06;;;;;;;20.15;6.65;;;34.10;99.90;;;;;;4976842;28;20218;-69
2023/12/18 04:42:34;;;;;;;14.70;5.88;;;33.90;99.90;;;;;;4994042;28;20209;-70
2023/12/18 04:45:02;;;;;;;18.38;6.10;;;34.10;99.90;;;;;;4994509;28;20183;-70
2023/12/18 04:47:29;;;;;;;10.82;6.38;;;34.10;99.90;;;;;;4993730;28;20221;-70
2023/12/18 04:49:57;;;;;;;15.15;6.20;;;34.20;99.90;;;;;;4994537;28;20194;-71
2023/12/18 04:52:25;;;;;;;13.98;6.38;;;33.80;99.90;;;;;;4994190;28;20174;-70
2023/12/18 04:54:53;;;;;;;15.80;6.03;;;33.70;99.90;;;;;;4974364;28;20194;-70
2023/12/18 04:57:21;;;;;;;15.98;6.70;;;33.30;99.90;;;;;;4979992;28;20198;-68
2023/12/18 04:59:48;;;;;;;19.10;6.90;;;32.90;99.90;;;;;;4993601;28;20293;-69
2023/12/18 05:02:16;;;;;;;16.15;6.75;;;32.60;99.90;;;;;;4975614;28;20583;-69
2023/12/18 05:04:44;;;;;;;16.88;6.45;;;32.90;99.90;;;;;;4994163;28;20656;-69
2023/12/18 05:07:12;;;;;;;17.88;7.32;;;33.50;99.90;;;;;;4994155;28;20175;-69
2023/12/18 05:09:40;;;;;;;15.77;5.80;;;33.70;99.90;;;;;;4974347;28;20211;-69
2023/12/18 05:12:08;;;;;;;17.02;6.30;;;33.30;99.90;;;;;;4974929;28;20213;-70
2023/12/18 05:14:36;;;;;;;15.95;6.85;;;33.00;99.90;;;;;;4991621;28;20187;-69
2023/12/18 05:17:04;;;;;;;16.23;6.18;;;33.00;99.90;;;;;;4993538;28;20183;-70
2023/12/18 05:19:32;;;;;;;16.15;7.10;;;33.20;99.90;;;;;;4993901;28;20213;-70
2023/12/18 05:21:59;;;;;;;18.85;7.60;;;33.10;99.90;;;;;;4990807;28;20205;-70
2023/12/18 05:24:27;;;;;;;14.48;6.78;;;33.20;99.90;;;;;;4993269;28;20228;-69
2023/12/18 05:26:54;;;;;;;16.45;6.75;;;33.10;99.90;;;;;;4993806;28;20187;-71
2023/12/18 05:29:22;;;;;;;17.42;7.55;;;32.90;99.90;;;;;;4993822;28;20302;-70
2023/12/18 05:31:50;;;;;;;18.63;7.07;;;33.00;99.90;;;;;;4995099;28;20178;-71
2023/12/18 05:34:17;;;;;;;16.17;7.47;;;33.00;99.90;;;;;;4993119;28;20274;-69
2023/12/18 05:36:45;;;;;;;14.85;6.78;;;32.70;99.90;;;;;;4994402;28;20178;-69
2023/12/18 05:39:13;;;;;;;17.65;7.18;;;32.20;99.90;;;;;;4993737;28;20194;-70
2023/12/18 05:41:40;;;;;;;19.90;6.93;;;32.00;99.90;;;;;;4996333;28;20178;-69
2023/12/18 05:44:08;;;;;;;17.40;7.13;;;32.10;99.90;;;;;;5001252;28;20182;-70
2023/12/18 05:46:36;;;;;;;23.98;8.02;;;31.90;99.90;;;;;;5004406;28;20663;-68
2023/12/18 05:49:03;;;;;;;16.60;7.30;;;32.00;99.90;;;;;;5005970;28;20178;-70
2023/12/18 05:51:31;;;;;;;17.35;7.20;;;32.00;99.90;;;;;;4998092;28;20702;-70
2023/12/18 05:53:59;;;;;;;19.48;8.02;;;32.00;99.90;;;;;;4993286;28;20178;-70
2023/12/18 05:56:26;;;;;;;20.20;7.85;;;32.00;99.90;;;;;;4993684;28;20179;-70
2023/12/18 05:58:55;;;;;;;18.13;7.18;;;31.90;99.90;;;;;;4992894;28;20580;-70
2023/12/18 06:01:23;;;;;;;16.15;6.93;;;32.00;99.90;;;;;;4992178;28;20214;-70
2023/12/18 06:03:51;;;;;;;23.40;7.28;;;31.90;99.90;;;;;;4992567;28;20191;-70
2023/12/18 06:06:19;;;;;;;24.52;7.88;;;32.10;99.90;;;;;;4992980;28;20190;-69
2023/12/18 06:08:47;;;;;;;16.58;7.47;;;32.20;99.90;;;;;;4992317;28;20183;-70
2023/12/18 06:11:15;;;;;;;18.38;8.25;;;31.90;99.90;;;;;;4992956;28;20175;-71
2023/12/18 06:13:43;;;;;;;19.38;7.57;;;31.90;99.90;;;;;;4992674;28;20661;-70
2023/12/18 06:16:11;;;;;;;17.02;7.75;;;32.00;99.90;;;;;;4992291;28;20261;-71
2023/12/18 06:18:38;;;;;;;17.33;7.88;;;31.90;99.90;;;;;;4993160;28;20185;-70
2023/12/18 06:21:07;;;;;;;21.05;8.45;;;31.70;99.90;;;;;;4992920;28;20211;-70
2023/12/18 06:23:34;;;;;;;22.42;8.93;;;31.40;99.90;;;;;;4992174;28;20296;-70
2023/12/18 06:26:05;;;;;;;20.67;8.07;;;31.40;99.90;;;;;;4992751;28;20546;-69
2023/12/18 06:28:32;;;;;;;18.40;8.85;;;31.40;99.90;;;;;;4992355;28;20664;-70
2023/12/18 06:31:00;;;;;;;18.75;8.18;;;31.00;99.90;;;;;;4992172;28;20179;-70
2023/12/18 06:33:28;;;;;;;17.45;8.60;;;30.80;99.90;;;;;;4974749;28;20281;-69
2023/12/18 06:35:55;;;;;;;18.58;9.02;;;30.50;99.90;;;;;;4992153;28;20829;-71
2023/12/18 06:38:23;;;;;;;21.83;8.32;;;30.40;99.90;;;;;;4974352;28;20742;-72
2023/12/18 06:40:51;;;;;;;23.13;10.18;;;30.20;99.90;;;;;;4992641;28;20258;-70
2023/12/18 06:43:20;;;;;;;20.52;10.40;;;30.20;99.90;;;;;;4992382;28;20648;-70
2023/12/18 06:45:47;;;;;;;22.88;11.00;;;30.10;99.90;;;;;;4991946;28;20193;-70
2023/12/18 06:48:15;;;;;;;24.17;10.35;;;30.20;99.90;;;;;;4992444;28;20186;-70
2023/12/18 06:50:43;;;;;;;26.63;10.50;;;30.20;99.90;;;;;;4993589;28;20285;-70
2023/12/18 06:53:10;;;;;;;27.52;11.35;;;30.30;99.90;;;;;;4992107;28;20186;-71
2023/12/18 06:55:38;;;;;;;20.75;10.27;;;30.30;99.90;;;;;;4992475;28;20204;-71
2023/12/18 06:58:06;;;;;;;21.67;9.93;;;30.30;99.90;;;;;;4992520;28;20328;-72
2023/12/18 07:00:34;;;;;;;23.27;9.82;;;30.30;99.90;;;;;;4974461;28;20233;-71
2023/12/18 07:03:02;;;;;;;25.27;9.73;;;30.30;99.90;;;;;;4975745;28;20206;-69
2023/12/18 07:05:29;;;;;;;23.58;8.70;;;30.10;99.90;;;;;;4976715;28;20217;-69
2023/12/18 07:07:57;;;;;;;20.35;8.68;;;30.20;99.90;;;;;;4994139;28;20189;-69
2023/12/18 07:10:25;;;;;;;18.52;7.47;;;30.30;99.90;;;;;;4993965;28;20221;-69
2023/12/18 07:12:53;;;;;;;21.03;7.63;;;30.40;99.90;;;;;;4993655;28;20185;-70
2023/12/18 07:15:23;;;;;;;21.57;7.30;;;30.30;99.90;;;;;;4974706;28;20194;-70
2023/12/18 07:17:51;;;;;;;25.05;7.85;;;30.30;99.90;;;;;;4996799;28;20221;-69
2023/12/18 07:20:26;;;;;;;17.23;6.90;;;30.40;99.90;;;;;;4997107;28;20217;-69
2023/12/18 07:22:54;;;;;;;17.37;6.60;;;30.50;99.90;;;;;;4979259;28;20605;-70
2023/12/18 07:25:21;;;;;;;19.40;6.97;;;30.50;99.90;;;;;;4997165;28;20242;-70
2023/12/18 07:27:49;;;;;;;20.77;6.97;;;30.70;99.90;;;;;;4978846;28;20182;-70
2023/12/18 07:30:17;;;;;;;16.93;6.47;;;30.50;99.90;;;;;;4995484;28;20174;-70
2023/12/18 07:32:45;;;;;;;21.45;6.28;;;30.40;99.90;;;;;;4996926;28;20189;-70
2023/12/18 07:35:13;;;;;;;19.97;7.03;;;30.20;99.90;;;;;;4996251;28;20214;-71
2023/12/18 07:37:40;;;;;;;21.13;7.23;;;30.10;99.90;;;;;;4996492;28;20229;-71
2023/12/18 07:40:09;;;;;;;21.93;6.63;;;29.80;99.90;;;;;;4996830;28;20209;-69
2023/12/18 07:42:37;;;;;;;21.00;7.53;;;29.50;99.90;;;;;;4995651;28;20171;-70
2023/12/18 07:45:05;;;;;;;15.30;6.27;;;29.40;99.90;;;;;;4996850;28;20241;-70
2023/12/18 07:47:33;;;;;;;23.70;7.90;;;29.40;99.90;;;;;;4997705;28;20189;-70
2023/12/18 07:50:01;;;;;;;27.87;7.20;;;29.30;99.90;;;;;;4997216;28;20190;-70
2023/12/18 07:52:28;;;;;;;23.63;7.37;;;29.40;99.90;;;;;;4997668;28;20222;-71
2023/12/18 07:54:56;;;;;;;15.50;7.60;;;29.10;99.90;;;;;;4997327;28;20178;-69
2023/12/18 07:57:24;;;;;;;22.70;7.37;;;29.10;99.90;;;;;;4997312;28;20182;-70
2023/12/18 07:59:52;;;;;;;25.63;7.43;;;29.00;99.90;;;;;;4997370;28;20235;-70
2023/12/18 08:02:19;;;;;;;21.93;7.73;;;28.80;99.90;;;;;;4997394;28;20174;-70
2023/12/18 08:04:47;;;;;;;26.27;7.17;;;28.80;99.90;;;;;;4996618;28;20257;-70
2023/12/18 08:07:15;;;;;;;19.87;7.03;;;28.70;99.90;;;;;;4997060;28;20179;-69
2023/12/18 08:09:44;;;;;;;22.93;7.13;;;28.70;99.90;;;;;;4996533;28;20671;-68
2023/12/18 08:12:12;;;;;;;23.93;7.97;;;28.60;99.90;;;;;;4996760;28;20179;-70
2023/12/18 08:14:43;;;;;;;18.80;7.37;;;28.40;99.90;;;;;;4996923;28;20253;-70
2023/12/18 08:17:15;;;;;;;24.87;8.27;;;28.40;99.90;;;;;;4979543;28;20191;-70
2023/12/18 08:19:50;;;;;;;26.97;7.63;;;28.30;99.90;;;;;;4980320;28;20303;-70
2023/12/18 08:22:17;;;;;;;23.20;7.03;;;28.20;99.90;;;;;;4996962;28;20178;-71
2023/12/18 08:24:45;;;;;;;25.23;6.77;;;28.10;99.90;;;;;;5002864;28;20234;-71
2023/12/18 08:27:13;;;;;;;22.43;6.13;;;28.10;99.90;;;;;;5006461;28;20720;-69
2023/12/18 08:29:41;;;;;;;24.23;7.03;;;28.10;99.90;;;;;;4997957;28;20210;-69
2023/12/18 08:32:09;;;;;;;23.43;6.47;;;28.00;99.90;;;;;;4996995;28;20175;-69
2023/12/18 08:34:37;;;;;;;23.37;5.87;;;27.80;99.90;;;;;;4996969;28;20209;-70
2023/12/18 08:37:06;;;;;;;23.17;6.17;;;27.80;99.90;;;;;;4996813;28;20632;-68
2023/12/18 08:39:33;;;;;;;21.77;5.83;;;27.70;99.90;;;;;;4979266;28;20335;-69
2023/12/18 08:42:01;;;;;;;18.60;6.30;;;27.70;99.90;;;;;;4996373;28;20187;-69
2023/12/18 08:47:51;;;;;;;24.83;6.80;;;27.30;99.90;;;;;;4995843;28;20182;-69
2023/12/18 08:50:19;;;;;;;29.07;7.43;;;27.10;99.90;;;;;;4996891;28;20171;-69
2023/12/18 08:52:46;;;;;;;20.97;6.50;;;27.00;99.90;;;;;;4996680;28;20229;-71
2023/12/18 08:55:14;;;;;;;24.40;7.57;;;27.00;99.90;;;;;;4996600;28;20182;-68
2023/12/18 08:57:42;;;;;;;27.43;6.93;;;26.90;99.90;;;;;;4996845;28;20577;-69
2023/12/18 09:00:11;;;;;;;23.30;6.27;;;26.90;99.90;;;;;;4996102;28;20305;-69
2023/12/18 09:02:38;;;;;;;26.57;7.07;;;26.90;99.90;;;;;;4978493;28;20229;-69
2023/12/18 09:05:06;;;;;;;29.63;6.70;;;26.80;99.90;;;;;;4995715;28;20190;-70
2023/12/18 09:07:34;;;;;;;18.53;5.60;;;26.70;99.90;;;;;;4995756;28;20175;-69
2023/12/18 09:10:02;;;;;;;26.10;6.83;;;26.60;99.90;;;;;;4995605;28;20174;-70
2023/12/18 09:12:29;;;;;;;31.23;5.87;;;26.60;99.90;;;;;;4995519;28;20171;-70
2023/12/18 09:14:57;;;;;;;24.57;6.07;;;26.60;99.90;;;;;;4996210;28;20189;-69
2023/12/18 09:17:26;;;;;;;23.17;6.00;;;26.60;99.90;;;;;;4995534;28;20179;-69
2023/12/18 09:19:53;;;;;;;25.53;6.00;;;26.50;99.90;;;;;;4995811;28;20202;-70
2023/12/18 09:22:21;;;;;;;25.80;6.30;;;26.50;99.90;;;;;;4995507;28;20182;-70
2023/12/18 09:24:49;;;;;;;19.53;4.97;;;26.50;99.90;;;;;;4995430;28;20183;-70
2023/12/18 09:27:16;;;;;;;17.30;4.83;;;26.50;99.90;;;;;;4995435;28;20721;-70
2023/12/18 09:29:44;;;;;;;24.83;5.70;;;26.40;99.90;;;;;;4995784;28;20252;-70
2023/12/18 09:32:12;;;;;;;20.97;6.07;;;26.50;99.90;;;;;;4995399;28;20182;-70
2023/12/18 09:34:40;;;;;;;23.63;5.60;;;26.40;99.90;;;;;;4995943;28;20233;-72
2023/12/18 09:37:08;;;;;;;19.63;6.00;;;26.40;99.90;;;;;;4995269;28;20230;-70
2023/12/18 09:39:35;;;;;;;24.43;6.50;;;26.50;99.90;;;;;;4994991;28;20262;-70
2023/12/18 09:42:05;;;;;;;22.83;5.60;;;26.50;99.90;;;;;;4995262;28;20249;-71
2023/12/18 09:44:33;;;;;;;33.00;7.70;;;26.50;99.90;;;;;;4994984;28;20600;-70
2023/12/18 09:47:01;;;;;;;25.77;6.87;;;26.70;99.90;;;;;;4995369;28;20641;-70
2023/12/18 09:49:29;;;;;;;26.00;5.77;;;26.70;99.90;;;;;;4995082;28;20182;-71
2023/12/18 09:52:08;;;;;;;20.10;6.57;;;26.70;99.90;;;;;;4977638;28;20277;-70
2023/12/18 09:54:37;;;;;;;21.50;6.63;;;26.80;99.90;;;;;;4995301;28;20175;-71
2023/12/18 09:57:08;;;;;;;19.83;6.77;;;26.90;99.90;;;;;;4995198;28;20197;-70
2023/12/18 09:59:35;;;;;;;28.23;6.90;;;26.90;99.90;;;;;;4977951;28;20234;-71
2023/12/18 10:02:03;;;;;;;24.67;6.33;;;26.80;99.90;;;;;;4995055;28;20281;-70
2023/12/18 10:04:31;;;;;;;23.97;5.70;;;26.70;99.90;;;;;;4994746;28;20170;-71
2023/12/18 10:06:59;;;;;;;26.83;7.03;;;26.60;99.90;;;;;;4994739;28;20237;-70
2023/12/18 10:09:28;;;;;;;25.20;7.43;;;26.60;99.90;;;;;;4994631;28;20206;-70
2023/12/18 10:11:56;;;;;;;24.30;6.93;;;26.60;99.90;;;;;;4994584;28;20182;-70
2023/12/18 10:14:25;;;;;;;33.33;7.53;;;26.50;99.90;;;;;;4994513;28;20178;-71
2023/12/18 10:16:52;;;;;;;20.60;6.63;;;26.40;99.90;;;;;;4976950;28;20430;-70
2023/12/18 10:19:24;;;;;;;19.10;6.80;;;26.30;99.90;;;;;;4994998;28;20241;-71
2023/12/18 10:21:51;;;;;;;22.23;6.40;;;26.30;99.90;;;;;;4994366;28;20194;-71
2023/12/18 10:24:20;;;;;;;30.83;7.23;;;26.30;99.90;;;;;;4976932;28;20550;-70
2023/12/18 10:26:48;;;;;;;21.50;6.77;;;26.20;99.90;;;;;;4976903;28;20183;-70
2023/12/18 10:29:16;;;;;;;25.13;6.17;;;26.20;99.90;;;;;;4994036;28;20550;-70
2023/12/18 10:31:45;;;;;;;17.43;6.83;;;26.20;99.90;;;;;;4994459;28;20617;-70
2023/12/18 10:34:12;;;;;;;22.00;7.43;;;26.10;99.90;;;;;;4994223;28;20208;-70
2023/12/18 10:36:41;;;;;;;26.40;6.80;;;26.10;99.90;;;;;;4994625;28;20178;-70
2023/12/18 10:39:10;;;;;;;20.63;6.90;;;26.00;99.90;;;;;;4994202;28;20179;-69
2023/12/18 10:41:43;;;;;;;20.27;6.30;;;26.00;99.90;;;;;;4993991;28;20197;-70
2023/12/18 10:47:34;;;;;;;21.50;6.80;;;25.90;99.90;;;;;;4993584;28;20269;-69
2023/12/18 10:50:04;;;;;;;26.00;6.30;;;26.00;99.90;;;;;;4994045;28;20182;-69
2023/12/18 10:52:33;;;;;;;23.17;7.40;;;25.90;99.90;;;;;;4993588;28;20175;-71
2023/12/18 10:55:05;;;;;;;24.17;7.83;;;25.90;99.90;;;;;;4994178;28;20189;-71
2023/12/18 10:57:38;;;;;;;22.77;6.60;;;25.90;99.90;;;;;;4994277;28;20276;-70
2023/12/18 11:00:08;;;;;;;25.33;6.60;;;25.90;99.90;;;;;;4993778;28;20239;-71
2023/12/18 11:02:36;;;;;;;20.23;6.50;;;25.90;99.90;;;;;;4976767;28;20515;-71
2023/12/18 11:05:05;;;;;;;23.33;6.50;;;25.80;99.90;;;;;;4993936;28;20179;-70
2023/12/18 11:07:33;;;;;;;21.60;6.53;;;25.80;99.90;;;;;;4994839;28;20653;-71
2023/12/18 11:10:02;;;;;;;26.80;11.30;;;25.80;99.90;;;;;;4978278;28;20182;-70
2023/12/18 11:12:31;;;;;;;32.70;7.73;;;25.80;99.90;;;;;;4976032;28;20190;-70
2023/12/18 11:15:04;;;;;;;19.43;6.67;;;25.80;99.90;;;;;;4993805;28;20228;-71
2023/12/18 11:17:55;;;;;;;25.63;6.37;;;25.80;99.90;;;;;;4993974;28;20182;-70
2023/12/18 11:20:43;;;;;;;20.30;6.17;;;25.80;99.90;;;;;;4993590;28;20218;-71
2023/12/18 11:23:16;;;;;;;24.60;6.50;;;25.70;99.90;;;;;;4993776;28;20278;-70
2023/12/18 11:25:50;;;;;;;35.03;7.10;;;25.70;99.90;;;;;;4993598;28;20682;-71
2023/12/18 11:28:20;;;;;;;19.50;5.70;;;25.70;99.90;;;;;;4993591;28;20185;-71
2023/12/18 11:30:47;;;;;;;28.80;7.57;;;25.60;99.90;;;;;;4993855;28;20266;-71
2023/12/18 11:33:16;;;;;;;21.47;6.60;;;25.60;99.90;;;;;;4993381;28;20269;-70
2023/12/18 11:35:49;;;;;;;22.27;6.60;;;25.60;99.90;;;;;;4993692;28;20620;-70
2023/12/18 11:38:20;;;;;;;22.83;7.47;;;25.60;99.90;;;;;;4969323;28;20206;-70
2023/12/18 11:40:50;;;;;;;23.10;5.77;;;25.60;99.90;;;;;;4993451;28;20218;-69
2023/12/18 11:43:36;;;;;;;20.80;6.50;;;25.50;99.90;;;;;;4994034;28;20181;-70
2023/12/18 11:46:13;;;;;;;23.90;6.67;;;25.50;99.90;;;;;;4981234;28;20182;-69
2023/12/18 11:48:41;;;;;;;27.30;6.60;;;25.40;99.90;;;;;;4993649;28;20167;-70
2023/12/18 11:51:11;;;;;;;23.67;6.63;;;25.40;99.90;;;;;;4993501;28;20202;-69
2023/12/18 11:53:39;;;;;;;23.27;6.13;;;25.40;99.90;;;;;;4993336;28;20182;-71
2023/12/18 11:56:11;;;;;;;17.00;5.43;;;25.40;99.90;;;;;;4993675;28;20698;-71
2023/12/18 11:58:43;;;;;;;24.33;7.17;;;25.40;99.90;;;;;;4993361;28;20235;-71
2023/12/18 12:01:12;;;;;;;23.33;6.50;;;25.40;99.90;;;;;;4993315;28;20253;-71
2023/12/18 12:03:41;;;;;;;18.67;6.43;;;25.40;99.90;;;;;;4996641;28;20513;-71
2023/12/18 12:06:10;;;;;;;18.00;6.70;;;25.40;99.90;;;;;;4996565;28;20186;-71
2023/12/18 12:08:50;;;;;;;22.80;6.97;;;25.30;99.90;;;;;;4996315;28;20178;-70
2023/12/18 12:11:18;;;;;;;22.90;7.20;;;25.30;99.90;;;;;;4996528;28;20518;-71
2023/12/18 12:13:49;;;;;;;29.10;7.53;;;25.30;99.90;;;;;;4996243;28;20217;-70
2023/12/18 12:16:17;;;;;;;19.27;6.57;;;25.20;99.90;;;;;;4996098;28;20179;-70
2023/12/18 12:18:46;;;;;;;26.83;7.13;;;25.20;99.90;;;;;;4996523;28;20182;-71
2023/12/18 12:21:16;;;;;;;19.87;6.57;;;25.20;99.90;;;;;;4996117;28;20219;-71
2023/12/18 12:23:49;;;;;;;34.07;8.10;;;25.20;99.90;;;;;;4996364;28;20190;-70
2023/12/18 12:26:22;;;;;;;15.00;5.60;;;25.20;99.90;;;;;;4996381;28;20179;-71
2023/12/18 12:28:50;;;;;;;19.90;7.03;;;25.10;99.90;;;;;;4996178;28;20273;-70
2023/12/18 12:31:19;;;;;;;22.53;6.00;;;25.10;99.90;;;;;;4996051;28;20179;-72
2023/12/18 12:33:50;;;;;;;19.87;6.70;;;25.10;99.90;;;;;;4996503;28;20228;-72
2023/12/18 12:36:22;;;;;;;22.10;6.10;;;25.00;99.90;;;;;;4996434;28;20177;-71
2023/12/18 12:38:53;;;;;;;22.53;7.00;;;25.00;99.90;;;;;;4996488;28;20183;-68
2023/12/18 12:41:21;;;;;;;21.27;6.67;;;25.00;99.90;;;;;;4996138;28;20210;-71
2023/12/18 12:43:49;;;;;;;23.30;6.57;;;25.00;99.90;;;;;;4996486;28;20179;-72
2023/12/18 12:46:17;;;;;;;22.40;7.03;;;25.00;99.90;;;;;;4996258;28;20599;-71
2023/12/18 12:48:44;;;;;;;28.03;6.77;;;25.00;99.90;;;;;;4995752;28;20210;-69
2023/12/18 12:51:14;;;;;;;33.13;8.00;;;25.00;99.90;;;;;;4996251;28;20641;-70
2023/12/18 12:53:42;;;;;;;21.37;6.53;;;25.00;99.90;;;;;;4996447;28;20170;-70
2023/12/18 12:56:11;;;;;;;22.13;7.40;;;25.00;99.90;;;;;;4997529;28;20281;-68